createdAt,value
2022-07-30T00:00:49.636Z,5.28
2022-07-30T00:03:36.110Z,5.05
2022-07-30T00:06:22.267Z,5.50
2022-07-30T00:09:08.714Z,5.37
2022-07-30T00:11:55.156Z,5.28
2022-07-30T00:14:41.726Z,5.55
2022-07-30T00:17:28.012Z,5.57
2022-07-30T00:20:14.997Z,5.43
2022-07-30T00:23:04.930Z,5.37
2022-07-30T00:25:51.139Z,4.70
2022-07-30T00:28:37.066Z,5.05
2022-07-30T00:31:23.460Z,5.60
2022-07-30T00:34:09.905Z,5.18
2022-07-30T00:36:56.929Z,5.05
2022-07-30T00:39:43.169Z,5.20
2022-07-30T00:42:46.570Z,5.78
2022-07-30T00:45:34.432Z,5.40
2022-07-30T00:48:20.783Z,5.20
2022-07-30T00:51:07.059Z,6.00
2022-07-30T00:53:53.527Z,5.35
2022-07-30T00:56:39.930Z,5.45
2022-07-30T00:59:28.418Z,5.22
2022-07-30T01:02:14.809Z,5.03
2022-07-30T01:05:01.207Z,5.57
2022-07-30T01:07:47.572Z,5.18
2022-07-30T01:10:34.038Z,5.15
2022-07-30T01:13:20.372Z,5.57
2022-07-30T01:16:06.698Z,5.45
2022-07-30T01:19:12.533Z,5.30
2022-07-30T01:22:24.800Z,5.20
2022-07-30T01:25:36.858Z,5.10
2022-07-30T01:28:27.826Z,5.32
2022-07-30T01:34:01.088Z,4.90
2022-07-30T01:36:47.576Z,5.15
2022-07-30T01:39:33.908Z,5.57
2022-07-30T01:42:20.949Z,4.97
2022-07-30T01:45:09.146Z,5.65
2022-07-30T01:47:58.658Z,5.05
2022-07-30T01:50:46.792Z,6.32
2022-07-30T01:53:37.214Z,5.25
2022-07-30T01:56:25.151Z,5.25
2022-07-30T01:59:12.471Z,5.53
2022-07-30T02:01:59.740Z,5.03
2022-07-30T02:04:47.251Z,4.93
2022-07-30T02:07:56.860Z,5.45
2022-07-30T02:10:52.486Z,5.05
2022-07-30T02:13:47.286Z,5.72
2022-07-30T02:16:37.584Z,5.78
2022-07-30T02:19:25.921Z,5.25
2022-07-30T02:22:20.577Z,5.43
2022-07-30T02:25:10.694Z,5.22
2022-07-30T02:28:02.687Z,5.40
2022-07-30T02:30:55.084Z,5.35
2022-07-30T02:33:48.647Z,5.07
2022-07-30T02:36:36.002Z,5.62
2022-07-30T02:39:22.998Z,5.18
2022-07-30T02:42:10.655Z,4.95
2022-07-30T02:44:58.066Z,5.47
2022-07-30T02:47:51.639Z,5.18
2022-07-30T02:50:39.449Z,5.22
2022-07-30T02:53:27.378Z,5.35
2022-07-30T02:56:16.025Z,5.97
2022-07-30T02:59:03.712Z,4.97
2022-07-30T03:01:50.968Z,4.93
2022-07-30T03:04:38.390Z,5.32
2022-07-30T03:07:25.405Z,5.20
2022-07-30T03:10:13.513Z,5.15
2022-07-30T03:13:00.959Z,5.78
2022-07-30T03:15:49.175Z,4.85
2022-07-30T03:18:37.001Z,5.22
2022-07-30T03:21:26.389Z,5.28
2022-07-30T03:24:14.108Z,5.22
2022-07-30T03:27:03.822Z,5.18
2022-07-30T03:29:52.403Z,5.87
2022-07-30T03:32:39.282Z,5.43
2022-07-30T03:35:31.388Z,4.95
2022-07-30T03:38:18.728Z,5.22
2022-07-30T03:41:05.875Z,5.07
2022-07-30T03:43:52.761Z,4.87
2022-07-30T03:46:39.078Z,5.30
2022-07-30T03:49:26.034Z,5.43
2022-07-30T03:52:12.615Z,5.10
2022-07-30T03:54:59.727Z,4.62
2022-07-30T03:57:49.313Z,5.35
2022-07-30T04:00:36.475Z,4.43
2022-07-30T04:03:31.017Z,5.20
2022-07-30T04:06:17.721Z,4.62
2022-07-30T04:09:04.436Z,4.50
2022-07-30T04:11:51.365Z,4.50
2022-07-30T04:14:42.570Z,4.90
2022-07-30T04:17:49.796Z,5.43
2022-07-30T04:20:41.361Z,4.72
2022-07-30T04:23:27.669Z,4.70
2022-07-30T04:26:14.683Z,4.70
2022-07-30T04:29:02.156Z,4.57
2022-07-30T04:31:48.773Z,4.85
2022-07-30T04:34:36.437Z,4.32
2022-07-30T04:37:26.797Z,4.50
2022-07-30T04:40:13.446Z,4.45
2022-07-30T04:43:00.009Z,4.25
2022-07-30T04:45:46.242Z,4.57
2022-07-30T04:48:32.578Z,4.60
2022-07-30T04:51:27.090Z,4.30
2022-07-30T04:54:15.502Z,4.40
2022-07-30T04:57:02.347Z,4.18
2022-07-30T04:59:49.133Z,4.57
2022-07-30T05:02:35.615Z,4.80
2022-07-30T05:05:24.250Z,4.50
2022-07-30T05:08:12.465Z,4.65
2022-07-30T05:10:59.153Z,4.32
2022-07-30T05:13:48.412Z,4.43
2022-07-30T05:16:36.011Z,4.07
2022-07-30T05:19:22.917Z,4.50
2022-07-30T05:22:09.789Z,5.00
2022-07-30T05:24:57.576Z,4.65
2022-07-30T05:27:44.262Z,4.85
2022-07-30T05:30:30.714Z,4.65
2022-07-30T05:33:17.655Z,4.62
2022-07-30T05:36:04.102Z,4.97
2022-07-30T05:38:51.377Z,4.53
2022-07-30T05:41:38.163Z,4.60
2022-07-30T05:44:25.105Z,5.05
2022-07-30T05:47:11.543Z,4.40
2022-07-30T05:50:01.604Z,5.20
2022-07-30T05:52:51.340Z,4.62
2022-07-30T05:55:38.553Z,4.62
2022-07-30T05:58:25.427Z,4.90
2022-07-30T06:01:12.325Z,5.12
2022-07-30T06:03:59.257Z,4.70
2022-07-30T06:06:53.880Z,4.78
2022-07-30T06:09:42.167Z,4.20
2022-07-30T06:12:29.774Z,4.65
2022-07-30T06:15:19.486Z,4.75
2022-07-30T06:18:11.606Z,4.80
2022-07-30T06:20:59.385Z,4.47
2022-07-30T06:23:45.596Z,4.70
2022-07-30T06:26:32.481Z,4.85
2022-07-30T06:29:18.863Z,4.35
2022-07-30T06:32:05.740Z,4.78
2022-07-30T06:34:59.714Z,4.90
2022-07-30T06:37:59.359Z,4.95
2022-07-30T06:40:57.129Z,5.00
2022-07-30T06:43:47.546Z,4.90
2022-07-30T06:46:34.407Z,4.75
2022-07-30T06:49:20.950Z,5.62
2022-07-30T06:52:07.996Z,5.12
2022-07-30T06:54:54.646Z,5.10
2022-07-30T06:57:42.586Z,5.85
2022-07-30T07:00:30.624Z,5.07
2022-07-30T07:03:18.550Z,5.15
2022-07-30T07:06:06.697Z,4.72
2022-07-30T07:08:52.997Z,5.03
2022-07-30T07:11:40.434Z,5.12
2022-07-30T07:14:27.286Z,5.53
2022-07-30T07:17:13.798Z,5.75
2022-07-30T07:20:02.880Z,5.70
2022-07-30T07:22:50.148Z,5.55
2022-07-30T07:25:36.547Z,5.32
2022-07-30T07:28:33.319Z,5.95
2022-07-30T07:32:05.023Z,5.60
2022-07-30T07:34:26.596Z,5.85
2022-07-30T07:37:13.087Z,5.80
2022-07-30T07:39:59.536Z,5.72
2022-07-30T07:42:52.187Z,5.45
2022-07-30T07:45:39.370Z,5.62
2022-07-30T07:48:25.662Z,5.65
2022-07-30T07:51:13.473Z,6.12
2022-07-30T07:54:19.980Z,6.43
2022-07-30T07:57:10.394Z,5.95
2022-07-30T07:59:59.470Z,5.43
2022-07-30T08:02:47.041Z,5.45
2022-07-30T08:05:55.878Z,5.70
2022-07-30T08:08:40.902Z,6.07
2022-07-30T08:11:29.139Z,5.60
2022-07-30T08:14:18.692Z,6.50
2022-07-30T08:17:08.096Z,5.78
2022-07-30T08:20:03.531Z,6.15
2022-07-30T08:22:50.066Z,6.07
2022-07-30T08:25:36.674Z,5.80
2022-07-30T08:28:35.399Z,5.10
2022-07-30T08:31:23.143Z,5.60
2022-07-30T08:34:09.527Z,6.57
2022-07-30T08:36:56.192Z,6.50
2022-07-30T08:39:42.886Z,7.00
2022-07-30T08:42:29.483Z,6.93
2022-07-30T08:45:17.526Z,7.00
2022-07-30T08:48:08.247Z,7.12
2022-07-30T08:50:55.513Z,6.53
2022-07-30T08:53:44.292Z,6.30
2022-07-30T08:56:32.628Z,7.65
2022-07-30T08:59:19.070Z,6.62
2022-07-30T09:02:08.922Z,6.35
2022-07-30T09:04:58.410Z,6.95
2022-07-30T09:07:44.805Z,8.48
2022-07-30T09:10:31.155Z,8.57
2022-07-30T09:13:35.686Z,8.77
2022-07-30T09:16:23.381Z,8.57
2022-07-30T09:19:17.945Z,8.82
2022-07-30T09:22:04.194Z,9.15
2022-07-30T09:24:50.924Z,9.13
2022-07-30T09:27:47.760Z,9.13
2022-07-30T09:30:54.576Z,10.45
2022-07-30T09:33:47.375Z,9.75
2022-07-30T09:36:35.913Z,9.80
2022-07-30T09:39:35.733Z,10.07
2022-07-30T09:42:26.037Z,12.13
2022-07-30T09:45:14.728Z,16.23
2022-07-30T09:48:01.807Z,17.33
2022-07-30T09:50:49.990Z,16.83
2022-07-30T09:53:36.990Z,17.00
2022-07-30T09:56:26.695Z,17.92
2022-07-30T09:59:35.094Z,18.90
2022-07-30T10:02:22.950Z,15.88
2022-07-30T10:05:22.005Z,17.37
2022-07-30T10:08:16.722Z,15.38
2022-07-30T10:11:09.716Z,14.45
2022-07-30T10:13:57.822Z,14.10
2022-07-30T10:16:44.267Z,14.82
2022-07-30T10:19:40.314Z,12.65
2022-07-30T10:22:34.769Z,15.23
2022-07-30T10:25:49.629Z,14.15
2022-07-30T10:28:45.714Z,15.43
2022-07-30T10:31:48.041Z,15.23
2022-07-30T10:34:36.165Z,14.82
2022-07-30T10:37:22.840Z,14.60
2022-07-30T10:40:18.578Z,15.05
2022-07-30T10:43:53.094Z,14.43
2022-07-30T10:46:58.544Z,15.80
2022-07-30T10:50:04.751Z,15.80
2022-07-30T10:52:54.985Z,15.02
2022-07-30T10:55:41.799Z,15.00
2022-07-30T10:58:28.019Z,16.30
2022-07-30T11:01:18.131Z,15.88
2022-07-30T11:04:20.859Z,17.33
2022-07-30T11:07:21.219Z,16.02
2022-07-30T11:10:09.679Z,18.42
2022-07-30T11:12:56.060Z,19.12
2022-07-30T11:15:57.711Z,20.55
2022-07-30T11:19:27.274Z,18.23
2022-07-30T11:22:31.455Z,14.18
2022-07-30T11:25:22.030Z,12.98
2022-07-30T11:28:34.136Z,11.48
2022-07-30T11:31:54.737Z,11.85
2022-07-30T11:34:40.967Z,10.60
2022-07-30T11:37:31.925Z,10.20
2022-07-30T11:40:26.147Z,10.93
2022-07-30T11:43:18.651Z,10.27
2022-07-30T11:46:10.222Z,10.27
2022-07-30T11:49:08.502Z,10.90
2022-07-30T11:51:54.966Z,9.95
2022-07-30T11:54:55.049Z,9.65
2022-07-30T11:57:42.181Z,9.93
2022-07-30T12:00:47.838Z,9.82
2022-07-30T12:03:34.300Z,8.45
2022-07-30T12:06:20.663Z,9.77
2022-07-30T12:09:07.366Z,9.40
2022-07-30T12:11:59.366Z,8.15
2022-07-30T12:14:47.271Z,8.40
2022-07-30T12:17:46.566Z,8.23
2022-07-30T12:20:33.930Z,7.72
2022-07-30T12:23:21.848Z,8.07
2022-07-30T12:26:08.819Z,7.65
2022-07-30T12:29:07.406Z,6.65
2022-07-30T12:31:53.536Z,5.65
2022-07-30T12:34:39.771Z,5.47
2022-07-30T12:37:26.149Z,4.20
2022-07-30T12:40:15.384Z,3.22
2022-07-30T12:43:01.714Z,3.40
2022-07-30T12:45:51.884Z,3.17
2022-07-30T12:48:54.793Z,2.65
2022-07-30T12:51:51.228Z,2.50
2022-07-30T12:54:37.489Z,2.60
2022-07-30T12:57:23.319Z,2.75
2022-07-30T13:00:09.910Z,3.05
2022-07-30T13:02:56.317Z,2.35
2022-07-30T13:05:47.259Z,2.58
2022-07-30T13:09:06.349Z,2.93
2022-07-30T13:11:52.839Z,2.58
2022-07-30T13:14:39.423Z,3.42
2022-07-30T13:17:25.883Z,3.10
2022-07-30T13:20:14.148Z,3.20
2022-07-30T13:23:02.115Z,2.83
2022-07-30T13:25:49.128Z,2.80
2022-07-30T13:28:36.680Z,2.95
2022-07-30T13:31:23.288Z,2.80
2022-07-30T13:34:10.256Z,2.60
2022-07-30T13:36:56.290Z,2.08
2022-07-30T13:39:42.618Z,1.98
2022-07-30T13:42:28.801Z,1.70
2022-07-30T13:45:15.137Z,1.85
2022-07-30T13:48:01.590Z,1.92
2022-07-30T13:50:48.093Z,1.75
2022-07-30T13:53:34.170Z,2.20
2022-07-30T13:56:20.655Z,1.50
2022-07-30T13:59:08.247Z,0.88
2022-07-30T14:01:56.485Z,0.90
2022-07-30T14:04:43.226Z,0.82
2022-07-30T14:07:29.523Z,0.90
2022-07-30T14:10:15.858Z,0.70
2022-07-30T14:13:02.155Z,0.85
2022-07-30T14:15:48.629Z,0.60
2022-07-30T14:18:34.980Z,0.80
2022-07-30T14:21:21.578Z,1.15
2022-07-30T14:24:08.020Z,1.52
2022-07-30T14:26:58.199Z,1.20
2022-07-30T14:29:45.016Z,1.30
2022-07-30T14:32:32.738Z,1.50
2022-07-30T14:35:19.123Z,1.48
2022-07-30T14:38:05.921Z,1.67
2022-07-30T14:40:52.098Z,1.50
2022-07-30T14:43:38.266Z,1.52
2022-07-30T14:46:24.653Z,1.80
2022-07-30T14:49:11.053Z,1.90
2022-07-30T14:52:01.967Z,1.70
2022-07-30T14:54:48.283Z,2.55
2022-07-30T14:57:34.485Z,1.58
2022-07-30T15:00:21.291Z,1.87
2022-07-30T15:03:11.470Z,2.10
2022-07-30T15:05:57.691Z,2.10
2022-07-30T15:08:46.026Z,1.80
2022-07-30T15:11:45.003Z,1.70
2022-07-30T15:14:40.194Z,1.60
2022-07-30T15:17:28.101Z,1.60
2022-07-30T15:20:14.672Z,1.52
2022-07-30T15:23:01.120Z,1.48
2022-07-30T15:25:48.843Z,1.90
2022-07-30T15:28:35.530Z,1.52
2022-07-30T15:31:21.959Z,1.70
2022-07-30T15:34:12.653Z,1.80
2022-07-30T15:36:58.919Z,1.95
2022-07-30T15:39:45.432Z,1.80
2022-07-30T15:42:32.187Z,1.60
2022-07-30T15:45:20.117Z,1.60
2022-07-30T15:48:06.816Z,1.73
2022-07-30T15:50:53.969Z,1.62
2022-07-30T15:53:40.113Z,1.70
2022-07-30T15:56:28.289Z,1.55
2022-07-30T15:59:14.420Z,1.40
2022-07-30T16:02:01.044Z,1.75
2022-07-30T16:04:48.343Z,1.40
2022-07-30T16:07:34.543Z,1.40
2022-07-30T16:10:20.713Z,1.70
2022-07-30T16:13:08.018Z,1.80
2022-07-30T16:15:54.620Z,1.70
2022-07-30T16:18:40.753Z,1.52
2022-07-30T16:21:27.237Z,1.67
2022-07-30T16:24:13.647Z,1.80
2022-07-30T16:26:59.837Z,1.60
2022-07-30T16:29:45.592Z,1.77
2022-07-30T16:32:32.398Z,1.98
2022-07-30T16:35:18.730Z,1.70
2022-07-30T16:38:05.131Z,1.48
2022-07-30T16:40:51.421Z,1.75
2022-07-30T16:43:38.179Z,1.50
2022-07-30T16:46:24.460Z,1.60
2022-07-30T16:49:10.722Z,1.95
2022-07-30T16:51:56.992Z,1.70
2022-07-30T16:54:43.598Z,1.80
2022-07-30T16:57:30.378Z,1.75
2022-07-30T17:00:18.229Z,1.70
2022-07-30T17:03:04.742Z,1.83
2022-07-30T17:05:51.238Z,1.73
2022-07-30T17:08:37.624Z,1.75
2022-07-30T17:11:46.476Z,2.00
2022-07-30T17:14:34.609Z,1.80
2022-07-30T17:17:21.045Z,2.25
2022-07-30T17:20:09.985Z,1.90
2022-07-30T17:22:56.739Z,1.92
2022-07-30T17:25:42.890Z,2.03
2022-07-30T17:28:29.129Z,1.98
2022-07-30T17:31:15.444Z,2.10
2022-07-30T17:34:01.637Z,1.90
2022-07-30T17:36:52.261Z,2.12
2022-07-30T17:40:03.989Z,2.10
2022-07-30T17:42:46.514Z,2.20
2022-07-30T17:45:34.408Z,2.10
2022-07-30T17:48:21.795Z,2.50
2022-07-30T17:51:08.469Z,2.30
2022-07-30T17:53:54.843Z,2.28
2022-07-30T17:56:41.389Z,2.55
2022-07-30T17:59:27.762Z,2.55
2022-07-30T18:02:14.267Z,2.10
2022-07-30T18:05:00.741Z,2.20
2022-07-30T18:07:47.086Z,2.37
2022-07-30T18:10:33.537Z,2.40
2022-07-30T18:13:26.762Z,2.90
2022-07-30T18:16:14.117Z,2.50
2022-07-30T18:19:00.347Z,2.22
2022-07-30T18:21:47.002Z,2.10
2022-07-30T18:24:33.185Z,2.47
2022-07-30T18:27:19.518Z,2.42
2022-07-30T18:30:06.548Z,2.90
2022-07-30T18:32:52.853Z,2.50
2022-07-30T18:35:39.122Z,2.50
2022-07-30T18:38:25.663Z,2.92
2022-07-30T18:41:11.983Z,2.55
2022-07-30T18:43:58.126Z,2.40
2022-07-30T18:46:44.585Z,2.45
2022-07-30T18:49:38.341Z,2.53
2022-07-30T18:52:24.758Z,2.90
2022-07-30T18:55:12.455Z,2.97
2022-07-30T18:57:58.534Z,3.28
2022-07-30T19:00:45.350Z,3.25
2022-07-30T19:03:32.123Z,3.35
2022-07-30T19:06:21.520Z,3.17
2022-07-30T19:09:16.840Z,3.75
2022-07-30T19:12:05.074Z,3.05
2022-07-30T19:14:53.084Z,15.75
2022-07-30T19:17:46.534Z,3.28
2022-07-30T19:20:33.196Z,6.90
2022-07-30T19:23:20.186Z,3.67
2022-07-30T19:26:06.277Z,3.92
2022-07-30T19:28:52.660Z,3.95
2022-07-30T19:31:41.644Z,4.80
2022-07-30T19:34:28.146Z,3.90
2022-07-30T19:37:14.539Z,4.70
2022-07-30T19:40:06.733Z,4.30
2022-07-30T19:43:09.467Z,6.25
2022-07-30T19:45:58.422Z,4.03
2022-07-30T19:48:45.801Z,4.43
2022-07-30T19:52:11.145Z,4.62
2022-07-30T19:54:38.862Z,4.87
2022-07-30T19:57:25.261Z,5.15
2022-07-30T20:00:31.630Z,4.45
2022-07-30T20:03:25.677Z,4.87
2022-07-30T20:06:18.442Z,5.30
2022-07-30T20:09:05.168Z,5.30
2022-07-30T20:12:01.587Z,5.07
2022-07-30T20:14:48.797Z,5.97
2022-07-30T20:17:35.215Z,5.80
2022-07-30T20:20:26.236Z,4.72
2022-07-30T20:23:12.574Z,5.05
2022-07-30T20:25:58.921Z,6.72
2022-07-30T20:28:52.381Z,5.90
2022-07-30T20:31:39.599Z,5.80
2022-07-30T20:34:30.780Z,6.03
2022-07-30T20:37:21.673Z,5.85
2022-07-30T20:40:09.288Z,6.12
2022-07-30T20:42:56.190Z,5.93
2022-07-30T20:45:43.755Z,5.60
2022-07-30T20:48:34.861Z,5.72
2022-07-30T20:51:21.310Z,5.75
2022-07-30T20:54:07.607Z,5.62
2022-07-30T20:56:54.039Z,5.32
2022-07-30T20:59:40.967Z,5.80
2022-07-30T21:02:30.205Z,6.25
2022-07-30T21:05:20.097Z,6.18
2022-07-30T21:08:06.414Z,6.12
2022-07-30T21:10:53.438Z,6.12
2022-07-30T21:13:41.497Z,6.30
2022-07-30T21:16:30.518Z,5.82
2022-07-30T21:19:17.701Z,6.45
2022-07-30T21:22:05.216Z,5.97
2022-07-30T21:24:53.021Z,5.35
2022-07-30T21:27:40.015Z,6.35
2022-07-30T21:30:26.899Z,6.40
2022-07-30T21:33:13.199Z,6.53
2022-07-30T21:36:00.135Z,6.10
2022-07-30T21:38:46.429Z,6.28
2022-07-30T21:41:40.240Z,5.47
2022-07-30T21:44:27.131Z,5.07
2022-07-30T21:47:13.592Z,5.37
2022-07-30T21:49:59.941Z,5.25
2022-07-30T21:52:46.288Z,4.80
2022-07-30T21:55:33.255Z,4.78
2022-07-30T21:58:26.207Z,4.32
2022-07-30T22:01:17.201Z,4.18
2022-07-30T22:04:09.075Z,4.43
2022-07-30T22:06:55.483Z,4.37
2022-07-30T22:12:32.873Z,4.68
2022-07-30T22:15:21.140Z,4.55
2022-07-30T22:18:08.095Z,4.50
2022-07-30T22:20:54.705Z,4.82
2022-07-30T22:23:54.811Z,4.18
2022-07-30T22:26:45.345Z,4.70
2022-07-30T22:29:33.903Z,4.65
2022-07-30T22:32:20.967Z,4.35
2022-07-30T22:35:07.550Z,3.92
2022-07-30T22:37:54.085Z,4.45
2022-07-30T22:40:40.812Z,3.85
2022-07-30T22:43:38.099Z,4.78
2022-07-30T22:46:31.072Z,3.85
2022-07-30T22:49:24.065Z,4.07
2022-07-30T22:52:27.565Z,4.03
2022-07-30T22:55:15.525Z,4.00
2022-07-30T22:58:07.831Z,4.07
2022-07-30T23:00:55.710Z,3.80
2022-07-30T23:03:42.260Z,4.53
2022-07-30T23:06:30.180Z,4.82
2022-07-30T23:09:16.524Z,4.25
2022-07-30T23:12:03.504Z,4.07
2022-07-30T23:14:49.796Z,4.82
2022-07-30T23:17:38.511Z,4.53
2022-07-30T23:20:24.816Z,5.05
2022-07-30T23:23:11.560Z,4.70
2022-07-30T23:25:57.762Z,4.85
2022-07-30T23:28:44.147Z,5.72
2022-07-30T23:31:30.539Z,5.53
2022-07-30T23:34:16.856Z,5.30
2022-07-30T23:37:05.000Z,4.82
2022-07-30T23:39:51.442Z,5.70
2022-07-30T23:42:38.076Z,5.45
2022-07-30T23:45:25.272Z,5.40
2022-07-30T23:48:12.080Z,4.68
2022-07-30T23:50:58.909Z,5.12
2022-07-30T23:53:45.429Z,4.97
2022-07-30T23:56:32.406Z,4.97
2022-07-30T23:59:18.442Z,4.80
